Terminal Aerodrome Forecast
Issued by NWS Greer, SC

Home | Current Version | Previous Version | Text Only | Print | Product List | Glossary On
Versions: 1 2 3 4 5 6 7 8 9 10 11 12 13 14 15 16 17 18 19 20
000
FTUS42 KGSP 180526
TAFGSP
TAF
KGSP 180526Z 1806/1906 00000KT P6SM FEW180 SCT250
     FM181200 05003KT P6SM BKN140
     FM181600 12003KT P6SM BKN080
     FM181900 21004KT P6SM BKN070
     FM190100 00000KT P6SM SCT060=

USA.gov is the U.S. government's official web portal to all federal, state and local government web resources and services.